createdAt,value
2019-01-20T00:00:16.225Z,84.5
2019-01-20T00:01:16.283Z,84.7
2019-01-20T00:02:15.541Z,84.7
2019-01-20T00:03:15.802Z,84.8
2019-01-20T00:04:16.068Z,84.9
2019-01-20T00:05:16.328Z,85.0
2019-01-20T00:06:15.593Z,84.9
2019-01-20T00:07:15.849Z,84.8
2019-01-20T00:08:16.107Z,84.8
2019-01-20T00:09:16.374Z,85.0
2019-01-20T00:10:15.632Z,85.0
2019-01-20T00:11:16.998Z,85.1
2019-01-20T00:12:16.269Z,85.0
2019-01-20T00:13:15.543Z,85.1
2019-01-20T00:14:15.809Z,85.1
2019-01-20T00:15:16.079Z,85.1
2019-01-20T00:16:16.348Z,85.2
2019-01-20T00:17:15.607Z,85.2
2019-01-20T00:18:15.883Z,85.3
2019-01-20T00:19:16.154Z,85.3
2019-01-20T00:20:16.587Z,85.3
2019-01-20T00:21:16.517Z,85.4
2019-01-20T00:22:15.784Z,85.3
2019-01-20T00:23:16.047Z,85.4
2019-01-20T00:24:16.313Z,85.4
2019-01-20T00:25:15.624Z,85.3
2019-01-20T00:26:15.940Z,85.7
2019-01-20T00:27:16.207Z,85.8
2019-01-20T00:28:16.485Z,85.6
2019-01-20T00:29:15.770Z,85.7
2019-01-20T00:30:16.048Z,85.7
2019-01-20T00:31:16.093Z,85.8
2019-01-20T00:32:16.363Z,85.8
2019-01-20T00:33:15.630Z,85.8
2019-01-20T00:34:16.076Z,85.8
2019-01-20T00:35:16.351Z,85.9
2019-01-20T00:36:15.613Z,86.0
2019-01-20T00:37:15.880Z,86.0
2019-01-20T00:38:16.134Z,86.0
2019-01-20T00:39:16.398Z,86.0
2019-01-20T00:40:15.656Z,86.2
2019-01-20T00:41:15.727Z,86.1
2019-01-20T00:42:15.992Z,86.2
2019-01-20T00:43:16.253Z,86.5
2019-01-20T00:44:15.493Z,86.2
2019-01-20T00:45:15.750Z,86.2
2019-01-20T00:46:16.013Z,86.2
2019-01-20T00:47:16.281Z,86.2
2019-01-20T00:48:15.541Z,86.6
2019-01-20T00:49:15.808Z,86.2
2019-01-20T00:50:16.105Z,86.2
2019-01-20T00:51:16.121Z,86.5
2019-01-20T00:52:16.390Z,86.6
2019-01-20T00:53:15.638Z,86.7
2019-01-20T00:54:15.902Z,86.6
2019-01-20T00:55:16.196Z,86.7
2019-01-20T00:56:16.482Z,86.7
2019-01-20T00:57:15.732Z,86.8
2019-01-20T00:58:15.997Z,86.8
2019-01-20T00:59:16.310Z,86.8
2019-01-20T01:00:15.593Z,87.0
2019-01-20T01:01:15.632Z,87.2
2019-01-20T01:02:15.893Z,87.1
2019-01-20T01:03:16.165Z,87.1
2019-01-20T01:04:16.431Z,87.2
2019-01-20T01:05:15.705Z,87.2
2019-01-20T01:06:15.975Z,87.3
2019-01-20T01:07:16.237Z,87.5
2019-01-20T01:08:15.519Z,87.4
2019-01-20T01:09:15.789Z,87.5
2019-01-20T01:10:16.073Z,87.5
2019-01-20T01:11:16.121Z,87.6
2019-01-20T01:12:16.448Z,87.5
2019-01-20T01:13:15.706Z,87.5
2019-01-20T01:14:15.965Z,87.6
2019-01-20T01:15:16.229Z,87.7
2019-01-20T01:16:15.492Z,87.5
2019-01-20T01:17:15.763Z,87.4
2019-01-20T01:18:16.008Z,87.4
2019-01-20T01:19:16.275Z,87.5
2019-01-20T01:20:15.560Z,87.5
2019-01-20T01:21:15.571Z,87.7
2019-01-20T01:22:15.830Z,87.8
2019-01-20T01:23:16.096Z,87.7
2019-01-20T01:24:16.365Z,87.7
2019-01-20T01:25:15.644Z,87.5
2019-01-20T01:26:15.904Z,87.7
2019-01-20T01:27:16.179Z,87.8
2019-01-20T01:28:16.446Z,87.8
2019-01-20T01:29:15.707Z,87.8
2019-01-20T01:30:15.978Z,87.8
2019-01-20T01:31:16.009Z,87.7
2019-01-20T01:32:16.272Z,87.7
2019-01-20T01:33:15.533Z,87.8
2019-01-20T01:34:15.791Z,88.0
2019-01-20T01:35:16.050Z,88.0
2019-01-20T01:36:16.321Z,87.9
2019-01-20T01:37:15.577Z,88.0
2019-01-20T01:38:15.847Z,88.1
2019-01-20T01:39:16.108Z,88.0
2019-01-20T01:40:16.395Z,88.0
2019-01-20T01:41:16.446Z,88.0
2019-01-20T01:42:15.710Z,87.9
2019-01-20T01:43:15.979Z,88.0
2019-01-20T01:44:16.260Z,87.9
2019-01-20T01:45:15.536Z,88.2
2019-01-20T01:46:15.804Z,88.2
2019-01-20T01:47:16.060Z,88.2
2019-01-20T01:48:16.316Z,88.2
2019-01-20T01:49:15.602Z,88.1
2019-01-20T01:50:15.871Z,88.1
2019-01-20T01:51:15.940Z,88.2
2019-01-20T01:52:16.212Z,88.1
2019-01-20T01:53:16.512Z,88.1
2019-01-20T01:54:15.784Z,88.2
2019-01-20T01:55:16.057Z,88.2
2019-01-20T01:56:16.326Z,88.2
2019-01-20T01:57:15.598Z,88.2
2019-01-20T01:58:15.859Z,88.2
2019-01-20T01:59:16.125Z,88.0
2019-01-20T02:00:16.417Z,88.0
2019-01-20T02:01:16.440Z,88.2
2019-01-20T02:02:15.709Z,88.2
2019-01-20T02:03:15.966Z,88.2
2019-01-20T02:04:16.230Z,88.3
2019-01-20T02:05:15.493Z,88.2
2019-01-20T02:06:15.753Z,88.2
2019-01-20T02:07:16.007Z,88.0
2019-01-20T02:08:16.274Z,87.9
2019-01-20T02:09:15.535Z,88.0
2019-01-20T02:10:15.825Z,88.1
2019-01-20T02:11:15.851Z,88.0
2019-01-20T02:12:16.093Z,88.0
2019-01-20T02:13:16.350Z,87.9
2019-01-20T02:14:15.611Z,88.0
2019-01-20T02:15:15.880Z,88.0
2019-01-20T02:16:16.143Z,87.9
2019-01-20T02:17:16.431Z,88.0
2019-01-20T02:18:15.700Z,88.0
2019-01-20T02:19:15.971Z,88.0
2019-01-20T02:20:16.364Z,88.0
2019-01-20T02:21:16.289Z,87.8
2019-01-20T02:22:15.556Z,88.0
2019-01-20T02:23:15.850Z,88.2
2019-01-20T02:24:16.128Z,88.1
2019-01-20T02:25:16.395Z,88.2
2019-01-20T02:26:15.659Z,88.2
2019-01-20T02:27:15.926Z,88.2
2019-01-20T02:28:16.187Z,88.0
2019-01-20T02:29:16.753Z,88.2
2019-01-20T02:30:16.025Z,88.2
2019-01-20T02:31:16.067Z,88.0
2019-01-20T02:32:16.330Z,87.9
2019-01-20T02:33:15.590Z,88.0
2019-01-20T02:34:15.867Z,88.0
2019-01-20T02:35:16.151Z,88.1
2019-01-20T02:36:16.419Z,88.2
2019-01-20T02:37:15.687Z,88.2
2019-01-20T02:38:15.953Z,87.9
2019-01-20T02:39:16.215Z,88.0
2019-01-20T02:40:16.579Z,88.2
2019-01-20T02:41:15.545Z,88.2
2019-01-20T02:42:15.809Z,88.3
2019-01-20T02:43:16.079Z,88.3
2019-01-20T02:44:16.345Z,88.3
2019-01-20T02:45:15.610Z,88.4
2019-01-20T02:46:15.878Z,88.7
2019-01-20T02:47:16.138Z,88.5
2019-01-20T02:48:16.410Z,88.7
2019-01-20T02:49:15.677Z,88.5
2019-01-20T02:50:15.964Z,88.6
2019-01-20T02:51:15.995Z,89.0
2019-01-20T02:52:16.262Z,88.8
2019-01-20T02:53:15.546Z,88.8
2019-01-20T02:54:15.820Z,88.9
2019-01-20T02:55:16.097Z,89.0
2019-01-20T02:56:16.358Z,89.0
2019-01-20T02:57:15.629Z,88.9
2019-01-20T02:58:15.923Z,89.1
2019-01-20T02:59:16.175Z,89.2
2019-01-20T03:00:16.495Z,89.2
2019-01-20T03:01:15.512Z,89.1
2019-01-20T03:02:15.794Z,89.1
2019-01-20T03:03:16.069Z,89.1
2019-01-20T03:04:16.333Z,89.1
2019-01-20T03:05:15.603Z,89.3
2019-01-20T03:06:15.877Z,89.3
2019-01-20T03:07:16.168Z,89.4
2019-01-20T03:08:16.444Z,89.5
2019-01-20T03:09:15.722Z,89.6
2019-01-20T03:10:16.005Z,89.7
2019-01-20T03:11:16.043Z,89.8
2019-01-20T03:12:16.703Z,89.8
2019-01-20T03:13:15.961Z,89.8
2019-01-20T03:14:16.238Z,89.8
2019-01-20T03:15:15.502Z,89.8
2019-01-20T03:16:15.786Z,89.8
2019-01-20T03:17:16.047Z,89.9
2019-01-20T03:18:16.314Z,90.0
2019-01-20T03:19:15.578Z,90.0
2019-01-20T03:20:15.891Z,90.0
2019-01-20T03:21:15.886Z,90.1
2019-01-20T03:22:16.150Z,90.2
2019-01-20T03:23:16.420Z,90.2
2019-01-20T03:24:15.697Z,90.1
2019-01-20T03:25:15.970Z,89.9
2019-01-20T03:26:16.240Z,90.1
2019-01-20T03:27:15.513Z,90.1
2019-01-20T03:28:15.778Z,90.1
2019-01-20T03:29:16.050Z,90.1
2019-01-20T03:30:16.462Z,90.1
2019-01-20T03:31:16.412Z,90.2
2019-01-20T03:32:15.702Z,90.2
2019-01-20T03:33:16.001Z,90.1
2019-01-20T03:34:16.260Z,90.3
2019-01-20T03:35:15.531Z,90.2
2019-01-20T03:36:15.802Z,90.2
2019-01-20T03:37:16.391Z,90.2
2019-01-20T03:38:15.656Z,90.2
2019-01-20T03:39:15.933Z,90.3
2019-01-20T03:40:16.206Z,90.3
2019-01-20T03:41:16.245Z,90.5
2019-01-20T03:42:15.527Z,90.3
2019-01-20T03:43:15.800Z,90.2
2019-01-20T03:44:16.065Z,90.2
2019-01-20T03:45:16.443Z,90.3
2019-01-20T03:46:15.728Z,90.3
2019-01-20T03:47:16.015Z,90.4
2019-01-20T03:48:16.286Z,90.6
2019-01-20T03:49:15.554Z,90.7
2019-01-20T03:50:15.829Z,90.8
2019-01-20T03:51:15.866Z,90.8
2019-01-20T03:52:16.137Z,90.8
2019-01-20T03:53:16.396Z,90.6
2019-01-20T03:54:15.662Z,90.6
2019-01-20T03:55:15.940Z,90.7
2019-01-20T03:56:16.199Z,90.7
2019-01-20T03:57:16.811Z,90.7
2019-01-20T03:58:16.069Z,90.8
2019-01-20T03:59:16.340Z,90.8
2019-01-20T04:00:15.636Z,90.8
2019-01-20T04:01:15.657Z,90.8
2019-01-20T04:02:15.925Z,90.9
2019-01-20T04:03:16.183Z,91.0
2019-01-20T04:04:16.448Z,91.1
2019-01-20T04:05:15.710Z,91.2
2019-01-20T04:06:15.976Z,91.2
2019-01-20T04:07:16.243Z,91.2
2019-01-20T04:08:15.511Z,91.2
2019-01-20T04:09:15.784Z,91.0
2019-01-20T04:10:16.064Z,91.0
2019-01-20T04:11:16.106Z,91.0
2019-01-20T04:12:21.810Z,90.9
2019-01-20T04:13:16.079Z,91.0
2019-01-20T04:14:16.347Z,91.0
2019-01-20T04:15:15.626Z,91.0
2019-01-20T04:16:15.898Z,91.2
2019-01-20T04:17:16.162Z,91.1
2019-01-20T04:18:16.415Z,91.0
2019-01-20T04:19:15.673Z,91.2
2019-01-20T04:20:15.964Z,91.2
2019-01-20T04:21:15.994Z,91.2
2019-01-20T04:22:16.265Z,91.4
2019-01-20T04:23:15.528Z,91.5
2019-01-20T04:24:15.800Z,91.5
2019-01-20T04:25:16.076Z,91.5
2019-01-20T04:26:16.352Z,91.5
2019-01-20T04:27:15.624Z,91.6
2019-01-20T04:28:15.888Z,91.5
2019-01-20T04:29:16.158Z,91.6
2019-01-20T04:30:16.432Z,91.3
2019-01-20T04:31:16.466Z,91.3
2019-01-20T04:32:15.731Z,91.3
2019-01-20T04:33:16.008Z,91.3
2019-01-20T04:34:16.270Z,91.5
2019-01-20T04:35:15.530Z,91.6
2019-01-20T04:36:15.804Z,91.5
2019-01-20T04:37:16.069Z,91.7
2019-01-20T04:38:16.335Z,91.7
2019-01-20T04:39:15.602Z,91.6
2019-01-20T04:40:15.897Z,92.0
2019-01-20T04:41:15.960Z,91.8
2019-01-20T04:42:16.229Z,91.8
2019-01-20T04:43:15.495Z,91.6
2019-01-20T04:44:16.273Z,91.6
2019-01-20T04:45:15.568Z,91.5
2019-01-20T04:46:15.863Z,91.8
2019-01-20T04:47:16.135Z,91.8
2019-01-20T04:48:16.408Z,91.8
2019-01-20T04:49:15.677Z,91.6
2019-01-20T04:50:15.945Z,91.9
2019-01-20T04:51:16.006Z,92.0
2019-01-20T04:52:16.268Z,91.9
2019-01-20T04:53:15.578Z,92.1
2019-01-20T04:54:16.172Z,92.3
2019-01-20T04:55:16.434Z,92.2
2019-01-20T04:56:15.697Z,92.0
2019-01-20T04:57:15.973Z,92.0
2019-01-20T04:58:16.234Z,91.9
2019-01-20T04:59:15.500Z,91.8
2019-01-20T05:00:15.792Z,91.9
2019-01-20T05:01:15.884Z,91.9
2019-01-20T05:02:16.154Z,92.0
2019-01-20T05:03:16.428Z,91.9
2019-01-20T05:04:15.694Z,91.9
2019-01-20T05:05:15.986Z,91.9
2019-01-20T05:06:16.259Z,92.0
2019-01-20T05:07:15.526Z,92.2
2019-01-20T05:08:15.788Z,92.2
2019-01-20T05:09:16.063Z,92.2
2019-01-20T05:10:16.444Z,92.0
2019-01-20T05:11:16.376Z,92.1
2019-01-20T05:12:15.635Z,92.2
2019-01-20T05:13:15.900Z,92.2
2019-01-20T05:14:16.162Z,92.1
2019-01-20T05:15:16.520Z,92.0
2019-01-20T05:16:15.796Z,92.1
2019-01-20T05:17:16.053Z,92.0
2019-01-20T05:18:16.308Z,92.2
2019-01-20T05:19:15.579Z,92.2
2019-01-20T05:20:15.857Z,92.4
2019-01-20T05:21:15.898Z,92.5
2019-01-20T05:22:16.168Z,92.3
2019-01-20T05:23:16.438Z,92.5
2019-01-20T05:24:15.720Z,92.5
2019-01-20T05:25:15.994Z,92.5
2019-01-20T05:26:16.278Z,92.7
2019-01-20T05:27:15.546Z,92.3
2019-01-20T05:28:15.818Z,92.2
2019-01-20T05:29:16.086Z,92.3
2019-01-20T05:30:16.361Z,91.7
2019-01-20T05:31:16.416Z,91.9
2019-01-20T05:32:15.672Z,92.1
2019-01-20T05:33:15.947Z,92.2
2019-01-20T05:34:16.256Z,92.4
2019-01-20T05:35:15.538Z,92.5
2019-01-20T05:36:15.804Z,92.5
2019-01-20T05:37:16.076Z,92.6
2019-01-20T05:38:16.341Z,92.6
2019-01-20T05:39:15.603Z,92.7
2019-01-20T05:40:17.653Z,92.8
2019-01-20T05:41:15.930Z,92.8
2019-01-20T05:42:16.197Z,92.8
2019-01-20T05:43:16.468Z,92.8
2019-01-20T05:44:15.746Z,92.8
2019-01-20T05:45:16.027Z,92.8
2019-01-20T05:46:16.295Z,92.8
2019-01-20T05:47:15.569Z,92.8
2019-01-20T05:48:15.828Z,92.8
2019-01-20T05:49:16.094Z,92.9
2019-01-20T05:50:16.358Z,93.0
2019-01-20T05:51:16.411Z,93.0
2019-01-20T05:52:15.675Z,93.2
2019-01-20T05:53:15.956Z,93.2
2019-01-20T05:54:16.230Z,93.0
2019-01-20T05:55:15.503Z,93.0
2019-01-20T05:56:15.761Z,93.0
2019-01-20T05:57:16.019Z,92.9
2019-01-20T05:58:16.279Z,93.1
2019-01-20T05:59:15.557Z,93.2
2019-01-20T06:00:15.846Z,93.2
2019-01-20T06:01:15.880Z,93.2
2019-01-20T06:02:16.148Z,93.2
2019-01-20T06:03:16.417Z,93.1
2019-01-20T06:04:15.698Z,92.9
2019-01-20T06:05:15.967Z,93.0
2019-01-20T06:06:16.238Z,93.0
2019-01-20T06:07:15.515Z,93.0
2019-01-20T06:08:15.776Z,93.1
2019-01-20T06:09:16.044Z,93.2
2019-01-20T06:10:16.328Z,93.2
2019-01-20T06:11:16.354Z,93.0
2019-01-20T06:12:15.635Z,93.1
2019-01-20T06:13:15.895Z,93.2
2019-01-20T06:14:16.159Z,93.1
2019-01-20T06:15:16.423Z,92.9
2019-01-20T06:16:15.699Z,92.8
2019-01-20T06:17:15.969Z,92.8
2019-01-20T06:18:16.234Z,92.8
2019-01-20T06:19:15.504Z,92.9
2019-01-20T06:20:15.776Z,92.8
2019-01-20T06:21:15.821Z,93.0
2019-01-20T06:22:16.103Z,92.9
2019-01-20T06:23:16.376Z,93.2
2019-01-20T06:24:15.644Z,93.1
2019-01-20T06:25:15.907Z,93.0
2019-01-20T06:26:16.181Z,93.0
2019-01-20T06:27:16.439Z,93.0
2019-01-20T06:28:15.695Z,93.0
2019-01-20T06:29:15.959Z,93.0
2019-01-20T06:30:16.236Z,93.0
2019-01-20T06:31:16.277Z,93.0
2019-01-20T06:32:15.539Z,93.0
2019-01-20T06:33:15.808Z,93.1
2019-01-20T06:34:16.076Z,93.2
2019-01-20T06:35:16.367Z,93.2
2019-01-20T06:36:15.670Z,93.2
2019-01-20T06:37:15.933Z,93.2
2019-01-20T06:38:16.229Z,93.2
2019-01-20T06:39:15.487Z,93.4
2019-01-20T06:40:15.773Z,93.1
2019-01-20T06:41:15.818Z,93.0
2019-01-20T06:42:16.075Z,93.2
2019-01-20T06:43:16.338Z,93.2
2019-01-20T06:44:15.611Z,93.2
2019-01-20T06:45:15.896Z,92.8
2019-01-20T06:46:16.162Z,92.8
2019-01-20T06:47:16.420Z,93.5
2019-01-20T06:48:15.694Z,93.3
2019-01-20T06:49:15.958Z,92.9
2019-01-20T06:50:16.240Z,92.9
2019-01-20T06:51:16.582Z,93.0
2019-01-20T06:52:15.835Z,93.0
2019-01-20T06:53:16.103Z,93.2
2019-01-20T06:54:16.360Z,93.1
2019-01-20T06:55:15.630Z,93.1
2019-01-20T06:56:15.899Z,93.2
2019-01-20T06:57:16.158Z,93.3
2019-01-20T06:58:16.414Z,93.4
2019-01-20T06:59:15.690Z,93.3
2019-01-20T07:00:15.961Z,93.1
2019-01-20T07:01:16.051Z,93.1
2019-01-20T07:02:16.328Z,93.1
2019-01-20T07:03:15.587Z,93.1
2019-01-20T07:04:15.856Z,93.2
2019-01-20T07:05:16.122Z,93.2
2019-01-20T07:06:16.391Z,93.2
2019-01-20T07:07:15.656Z,93.1
2019-01-20T07:08:15.921Z,93.1
2019-01-20T07:09:16.191Z,93.3
2019-01-20T07:10:16.470Z,93.2
2019-01-20T07:11:15.521Z,93.3
2019-01-20T07:12:15.790Z,93.2
2019-01-20T07:13:16.058Z,92.9
2019-01-20T07:14:16.350Z,93.0
2019-01-20T07:15:15.621Z,93.0
2019-01-20T07:16:15.881Z,93.0
2019-01-20T07:17:16.206Z,93.1
2019-01-20T07:18:16.474Z,93.2
2019-01-20T07:19:15.751Z,93.1
2019-01-20T07:20:16.027Z,93.1
2019-01-20T07:21:16.083Z,93.2
2019-01-20T07:22:16.571Z,93.2
2019-01-20T07:23:15.849Z,93.2
2019-01-20T07:24:16.119Z,93.2
2019-01-20T07:25:16.387Z,93.2
2019-01-20T07:26:15.656Z,93.3
2019-01-20T07:27:15.924Z,92.8
2019-01-20T07:28:16.187Z,93.0
2019-01-20T07:29:16.455Z,92.9
2019-01-20T07:30:15.798Z,92.8
2019-01-20T07:31:15.787Z,92.7
2019-01-20T07:32:16.047Z,92.7
2019-01-20T07:33:16.312Z,92.8
2019-01-20T07:34:15.587Z,92.5
2019-01-20T07:35:15.860Z,92.4
2019-01-20T07:36:16.123Z,92.4
2019-01-20T07:37:16.410Z,92.4
2019-01-20T07:38:15.672Z,92.2
2019-01-20T07:39:15.940Z,92.2
2019-01-20T07:40:16.210Z,92.2
2019-01-20T07:41:16.251Z,92.2
2019-01-20T07:42:15.514Z,92.1
2019-01-20T07:43:17.296Z,92.2
2019-01-20T07:44:15.586Z,91.8
2019-01-20T07:45:15.849Z,91.6
2019-01-20T07:46:16.114Z,91.5
2019-01-20T07:47:16.399Z,91.4
2019-01-20T07:48:15.658Z,91.8
2019-01-20T07:49:15.928Z,91.7
2019-01-20T07:50:16.223Z,91.5
2019-01-20T07:51:16.263Z,91.4
2019-01-20T07:52:15.535Z,91.3
2019-01-20T07:53:16.191Z,91.3
2019-01-20T07:54:16.465Z,91.2
2019-01-20T07:55:15.736Z,91.2
2019-01-20T07:56:16.007Z,91.1
2019-01-20T07:57:16.267Z,91.2
2019-01-20T07:58:15.533Z,91.2
2019-01-20T07:59:15.798Z,91.1
2019-01-20T08:00:16.082Z,91.1
2019-01-20T08:01:16.113Z,90.8
2019-01-20T08:02:16.373Z,90.7
2019-01-20T08:03:15.628Z,90.7
2019-01-20T08:04:15.903Z,90.7
2019-01-20T08:05:16.177Z,90.3
2019-01-20T08:06:16.448Z,90.3
2019-01-20T08:07:15.708Z,90.2
2019-01-20T08:08:15.962Z,90.2
2019-01-20T08:09:16.223Z,90.2
2019-01-20T08:10:15.500Z,90.2
2019-01-20T08:11:15.533Z,89.8
2019-01-20T08:12:15.791Z,89.8
2019-01-20T08:13:16.049Z,89.8
2019-01-20T08:14:16.309Z,89.6
2019-01-20T08:15:15.605Z,89.5
2019-01-20T08:16:15.878Z,89.2
2019-01-20T08:17:16.155Z,89.2
2019-01-20T08:18:16.421Z,89.4
2019-01-20T08:19:15.680Z,89.4
2019-01-20T08:20:16.017Z,89.3
2019-01-20T08:21:16.061Z,89.2
2019-01-20T08:22:16.318Z,88.9
2019-01-20T08:23:15.578Z,88.8
2019-01-20T08:24:15.840Z,88.8
2019-01-20T08:25:16.112Z,88.1
2019-01-20T08:26:16.432Z,87.7
2019-01-20T08:27:15.701Z,87.3
2019-01-20T08:28:15.981Z,87.1
2019-01-20T08:29:16.244Z,87.0
2019-01-20T08:30:15.529Z,87.1
2019-01-20T08:31:15.570Z,87.2
2019-01-20T08:32:15.843Z,87.1
2019-01-20T08:33:16.121Z,86.8
2019-01-20T08:34:16.402Z,86.8
2019-01-20T08:35:15.734Z,86.7
2019-01-20T08:36:16.005Z,86.0
2019-01-20T08:37:16.272Z,86.0
2019-01-20T08:38:15.538Z,86.4
2019-01-20T08:39:15.808Z,86.4
2019-01-20T08:40:16.093Z,86.3
2019-01-20T08:41:16.126Z,86.2
2019-01-20T08:42:16.396Z,85.6
2019-01-20T08:43:15.655Z,85.1
2019-01-20T08:44:15.937Z,85.0
2019-01-20T08:45:16.200Z,84.6
2019-01-20T08:46:16.462Z,85.0
2019-01-20T08:47:15.728Z,85.3
2019-01-20T08:48:15.991Z,85.0
2019-01-20T08:49:16.259Z,84.6
2019-01-20T08:50:15.526Z,84.5
2019-01-20T08:51:15.569Z,84.2
2019-01-20T08:52:15.843Z,84.0
2019-01-20T08:53:16.108Z,84.0
2019-01-20T08:54:16.378Z,83.5
2019-01-20T08:55:15.644Z,83.3
2019-01-20T08:56:15.907Z,83.3
2019-01-20T08:57:16.173Z,83.6
2019-01-20T08:58:16.433Z,83.1
2019-01-20T08:59:15.703Z,83.7
2019-01-20T09:00:15.990Z,83.8
2019-01-20T09:01:16.051Z,84.0
2019-01-20T09:02:16.322Z,83.5
2019-01-20T09:03:15.585Z,82.4
2019-01-20T09:04:15.849Z,82.2
2019-01-20T09:05:16.112Z,82.3
2019-01-20T09:06:16.375Z,82.7
2019-01-20T09:07:15.649Z,82.5
2019-01-20T09:08:15.918Z,82.2
2019-01-20T09:09:16.178Z,82.2
2019-01-20T09:10:16.456Z,82.5
2019-01-20T09:11:15.497Z,81.9
2019-01-20T09:12:15.761Z,81.2
2019-01-20T09:13:16.015Z,80.4
2019-01-20T09:14:16.283Z,80.3
2019-01-20T09:15:15.593Z,80.0
2019-01-20T09:16:15.859Z,79.4
2019-01-20T09:17:16.124Z,78.6
2019-01-20T09:18:16.385Z,78.8
2019-01-20T09:19:15.648Z,79.6
2019-01-20T09:20:15.928Z,79.2
2019-01-20T09:21:15.965Z,79.0
2019-01-20T09:22:16.230Z,79.4
2019-01-20T09:23:15.498Z,79.5
2019-01-20T09:24:15.770Z,79.8
2019-01-20T09:25:16.037Z,79.6
2019-01-20T09:26:16.303Z,79.9
2019-01-20T09:27:15.574Z,79.6
2019-01-20T09:28:15.835Z,79.7
2019-01-20T09:29:16.097Z,79.9
2019-01-20T09:30:16.386Z,79.4
2019-01-20T09:31:16.413Z,79.0
2019-01-20T09:32:15.720Z,79.0
2019-01-20T09:33:15.977Z,79.2
2019-01-20T09:34:16.240Z,79.3
2019-01-20T09:35:15.508Z,80.6
2019-01-20T09:36:15.768Z,80.9
2019-01-20T09:37:16.041Z,80.8
2019-01-20T09:38:16.301Z,80.7
2019-01-20T09:39:15.566Z,80.1
2019-01-20T09:40:15.840Z,80.0
2019-01-20T09:41:15.879Z,80.2
2019-01-20T09:42:16.151Z,80.6
2019-01-20T09:43:16.416Z,80.6
2019-01-20T09:44:15.685Z,80.5
2019-01-20T09:45:15.951Z,80.8
2019-01-20T09:46:16.504Z,81.2
2019-01-20T09:47:15.773Z,80.9
2019-01-20T09:48:16.048Z,81.0
2019-01-20T09:49:16.311Z,80.9
2019-01-20T09:50:15.586Z,81.0
2019-01-20T09:51:15.627Z,80.6
2019-01-20T09:52:15.892Z,80.6
2019-01-20T09:53:16.163Z,81.2
2019-01-20T09:54:16.437Z,81.2
2019-01-20T09:55:15.698Z,81.8
2019-01-20T09:56:15.953Z,82.0
2019-01-20T09:57:16.223Z,81.2
2019-01-20T09:58:15.507Z,81.2
2019-01-20T09:59:15.775Z,81.3
2019-01-20T10:00:16.055Z,81.0
2019-01-20T10:01:16.108Z,81.2
2019-01-20T10:02:16.371Z,81.2
2019-01-20T10:03:16.578Z,81.0
2019-01-20T10:04:15.853Z,81.1
2019-01-20T10:05:17.178Z,80.8
2019-01-20T10:06:16.439Z,80.9
2019-01-20T10:07:15.703Z,80.9
2019-01-20T10:08:15.976Z,80.8
2019-01-20T10:09:16.250Z,80.8
2019-01-20T10:10:15.510Z,80.8
2019-01-20T10:11:15.570Z,80.7
2019-01-20T10:12:15.841Z,80.9
2019-01-20T10:13:16.153Z,80.8
2019-01-20T10:14:16.414Z,80.6
2019-01-20T10:15:15.675Z,80.5
2019-01-20T10:16:15.948Z,80.6
2019-01-20T10:17:16.222Z,81.0
2019-01-20T10:18:15.484Z,80.7
2019-01-20T10:19:15.753Z,80.3
2019-01-20T10:20:16.030Z,79.8
2019-01-20T10:21:16.087Z,80.2
2019-01-20T10:22:16.353Z,80.8
2019-01-20T10:23:15.625Z,80.8
2019-01-20T10:24:15.892Z,80.8
2019-01-20T10:25:16.157Z,80.4
2019-01-20T10:26:16.426Z,80.1
2019-01-20T10:27:15.682Z,80.2
2019-01-20T10:28:15.951Z,80.0
2019-01-20T10:29:16.215Z,79.8
2019-01-20T10:30:15.489Z,80.0
2019-01-20T10:31:15.543Z,79.6
2019-01-20T10:32:15.834Z,79.2
2019-01-20T10:33:16.098Z,80.0
2019-01-20T10:34:16.412Z,79.6
2019-01-20T10:35:15.682Z,79.5
2019-01-20T10:36:15.948Z,79.4
2019-01-20T10:37:16.263Z,79.0
2019-01-20T10:38:15.544Z,79.2
2019-01-20T10:39:15.807Z,79.3
2019-01-20T10:40:16.084Z,78.8
2019-01-20T10:41:16.130Z,79.5
2019-01-20T10:42:16.394Z,79.3
2019-01-20T10:43:15.657Z,79.3
2019-01-20T10:44:16.073Z,79.2
2019-01-20T10:45:16.402Z,78.9
2019-01-20T10:46:16.708Z,79.3
2019-01-20T10:47:15.979Z,79.2
2019-01-20T10:48:16.241Z,79.4
2019-01-20T10:49:15.508Z,78.7
2019-01-20T10:50:15.796Z,79.2
2019-01-20T10:51:15.838Z,79.2
2019-01-20T10:52:16.099Z,78.8
2019-01-20T10:53:16.371Z,78.5
2019-01-20T10:54:15.638Z,78.2
2019-01-20T10:55:15.910Z,78.2
2019-01-20T10:56:16.175Z,78.3
2019-01-20T10:57:16.455Z,78.7
2019-01-20T10:58:15.713Z,78.1
2019-01-20T10:59:15.976Z,78.3
2019-01-20T11:00:16.264Z,78.0
2019-01-20T11:01:16.298Z,78.0
2019-01-20T11:02:15.556Z,78.1
2019-01-20T11:03:15.833Z,78.3
2019-01-20T11:04:16.089Z,78.5
2019-01-20T11:05:16.654Z,78.6
2019-01-20T11:06:15.922Z,78.6
2019-01-20T11:07:16.414Z,78.4
2019-01-20T11:08:15.686Z,78.6
2019-01-20T11:09:15.953Z,78.7
2019-01-20T11:10:16.223Z,78.6
2019-01-20T11:11:16.272Z,77.6
2019-01-20T11:12:15.540Z,77.7
2019-01-20T11:13:15.807Z,77.4
2019-01-20T11:14:16.069Z,77.4
2019-01-20T11:15:16.343Z,77.4
2019-01-20T11:16:15.623Z,77.6
2019-01-20T11:17:15.895Z,77.8
2019-01-20T11:18:16.159Z,77.5
2019-01-20T11:19:16.418Z,77.5
2019-01-20T11:20:15.682Z,77.3
2019-01-20T11:21:15.729Z,77.4
2019-01-20T11:22:15.988Z,77.4
2019-01-20T11:23:16.249Z,77.3
2019-01-20T11:24:15.515Z,77.5
2019-01-20T11:25:15.802Z,77.7
2019-01-20T11:26:16.062Z,77.7
2019-01-20T11:27:16.326Z,77.1
2019-01-20T11:28:15.592Z,76.8
2019-01-20T11:29:15.855Z,77.0
2019-01-20T11:30:16.123Z,77.2
2019-01-20T11:31:16.203Z,77.0
2019-01-20T11:32:16.465Z,76.9
2019-01-20T11:33:15.730Z,77.0
2019-01-20T11:34:16.000Z,76.5
2019-01-20T11:35:16.263Z,76.6
2019-01-20T11:36:15.524Z,76.7
2019-01-20T11:37:15.794Z,76.7
2019-01-20T11:38:16.055Z,76.5
2019-01-20T11:39:16.324Z,76.4
2019-01-20T11:40:15.601Z,76.1
2019-01-20T11:41:15.640Z,76.6
2019-01-20T11:42:15.907Z,77.2
2019-01-20T11:43:16.171Z,76.9
2019-01-20T11:44:17.376Z,76.6
2019-01-20T11:45:15.670Z,76.7
2019-01-20T11:46:15.948Z,76.6
2019-01-20T11:47:16.218Z,76.7
2019-01-20T11:48:15.476Z,76.5
2019-01-20T11:49:15.751Z,76.8
2019-01-20T11:50:16.028Z,76.5
2019-01-20T11:51:16.072Z,76.7
2019-01-20T11:52:16.344Z,77.0
2019-01-20T11:53:15.612Z,76.8
2019-01-20T11:54:15.875Z,76.5
2019-01-20T11:55:16.149Z,76.7
2019-01-20T11:56:16.433Z,77.0
2019-01-20T11:57:15.701Z,77.3
2019-01-20T11:58:16.036Z,77.0
2019-01-20T11:59:16.304Z,76.5
2019-01-20T12:00:15.583Z,76.9
2019-01-20T12:01:15.622Z,77.3
2019-01-20T12:02:22.659Z,77.0
2019-01-20T12:03:15.974Z,76.7
2019-01-20T12:04:16.238Z,77.1
2019-01-20T12:05:15.529Z,76.7
2019-01-20T12:06:15.791Z,76.5
2019-01-20T12:07:16.079Z,76.8
2019-01-20T12:08:16.344Z,77.6
2019-01-20T12:09:15.602Z,76.9
2019-01-20T12:10:16.093Z,77.5
2019-01-20T12:11:15.938Z,77.8
2019-01-20T12:12:16.214Z,78.1
2019-01-20T12:13:15.475Z,77.3
2019-01-20T12:14:15.740Z,77.5
2019-01-20T12:15:16.018Z,77.0
2019-01-20T12:16:16.291Z,77.2
2019-01-20T12:17:15.556Z,77.1
2019-01-20T12:18:15.816Z,77.5
2019-01-20T12:19:16.079Z,77.2
2019-01-20T12:20:16.371Z,77.5
2019-01-20T12:21:16.415Z,77.5
2019-01-20T12:22:15.683Z,77.5
2019-01-20T12:23:15.942Z,77.7
2019-01-20T12:24:16.208Z,77.7
2019-01-20T12:25:15.474Z,78.2
2019-01-20T12:26:15.746Z,78.1
2019-01-20T12:27:16.008Z,77.2
2019-01-20T12:28:16.271Z,77.5
2019-01-20T12:29:15.542Z,77.8
2019-01-20T12:30:15.830Z,77.8
2019-01-20T12:31:15.864Z,77.5
2019-01-20T12:32:16.138Z,77.6
2019-01-20T12:33:16.414Z,77.4
2019-01-20T12:34:15.687Z,77.7
2019-01-20T12:35:15.962Z,77.8
2019-01-20T12:36:16.227Z,77.9
2019-01-20T12:37:15.502Z,78.3
2019-01-20T12:38:15.779Z,78.5
2019-01-20T12:39:16.046Z,78.5
2019-01-20T12:40:16.323Z,78.3
2019-01-20T12:41:16.357Z,78.2
2019-01-20T12:42:15.622Z,78.0
2019-01-20T12:43:15.882Z,78.3
2019-01-20T12:44:16.148Z,78.5
2019-01-20T12:45:16.413Z,78.2
2019-01-20T12:46:15.678Z,77.8
2019-01-20T12:47:15.933Z,77.9
2019-01-20T12:48:16.208Z,78.1
2019-01-20T12:49:15.469Z,78.7
2019-01-20T12:50:15.749Z,78.4
2019-01-20T12:51:15.803Z,78.4
2019-01-20T12:52:16.079Z,79.1
2019-01-20T12:53:16.343Z,79.1
2019-01-20T12:54:15.618Z,79.3
2019-01-20T12:55:15.902Z,79.3
2019-01-20T12:56:16.165Z,78.5
2019-01-20T12:57:16.422Z,78.5
2019-01-20T12:58:15.685Z,78.6
2019-01-20T12:59:15.977Z,78.6
2019-01-20T13:00:16.283Z,78.3
2019-01-20T13:01:16.326Z,78.3
2019-01-20T13:02:15.593Z,78.5
2019-01-20T13:03:15.872Z,78.3
2019-01-20T13:04:16.154Z,78.3
2019-01-20T13:05:16.432Z,78.9
2019-01-20T13:06:15.701Z,78.7
2019-01-20T13:07:15.961Z,78.2
2019-01-20T13:08:16.224Z,78.8
2019-01-20T13:09:15.487Z,78.9
2019-01-20T13:10:15.774Z,78.8
2019-01-20T13:11:15.830Z,78.3
2019-01-20T13:12:16.100Z,78.8
2019-01-20T13:13:16.373Z,78.6
2019-01-20T13:14:15.644Z,78.8
2019-01-20T13:15:15.911Z,78.9
2019-01-20T13:16:16.183Z,78.7
2019-01-20T13:17:16.457Z,78.6
2019-01-20T13:18:15.731Z,78.8